Time;durP1;ratioP1;P1;durP2;ratioP2;P2;SDS_P1;SDS_P2;PMS_P1;PMS_P2;Temp;Humidity;BMP_temperature;BMP_pressure;BME280_temperature;BME280_humidity;BME280_pressure;Samples;Min_cycle;Max_cycle;Signal;HPM_P1;HPM_P2
2022/05/18 00:02:17;;;;;;;1.70;1.30;;;;;;;;;;5051530;28;20344;-38
2022/05/18 00:04:42;;;;;;;3.95;1.73;;;;;;;;;;5051779;28;20601;-38
2022/05/18 00:07:08;;;;;;;1.95;1.40;;;;;;;;;;5051572;28;20035;-38
2022/05/18 00:09:33;;;;;;;4.70;1.13;;;;;;;;;;5051343;28;20029;-38
2022/05/18 00:11:58;;;;;;;4.30;1.85;;;;;;;;;;5051281;28;20025;-38
2022/05/18 00:14:24;;;;;;;2.47;1.40;;;;;;;;;;5051257;28;20047;-38
2022/05/18 00:16:49;;;;;;;2.22;1.50;;;;;;;;;;5051628;28;20117;-38
2022/05/18 00:19:14;;;;;;;5.72;1.60;;;;;;;;;;5051567;28;20061;-38
2022/05/18 00:21:41;;;;;;;1.80;1.02;;;;;;;;;;5051282;28;20024;-38
2022/05/18 00:24:07;;;;;;;6.00;1.40;;;;;;;;;;5051262;28;20119;-38
2022/05/18 00:26:33;;;;;;;3.50;1.60;;;;;;;;;;5051294;28;20097;-37
2022/05/18 00:28:58;;;;;;;6.43;1.50;;;;;;;;;;5051455;28;20478;-38
2022/05/18 00:31:23;;;;;;;3.53;1.65;;;;;;;;;;5051389;28;20063;-38
2022/05/18 00:33:49;;;;;;;3.55;1.23;;;;;;;;;;5051206;28;20809;-38
2022/05/18 00:36:14;;;;;;;2.35;1.80;;;;;;;;;;5051059;28;20428;-38
2022/05/18 00:38:39;;;;;;;2.70;1.48;;;;;;;;;;5051412;28;20032;-38
2022/05/18 00:41:05;;;;;;;2.28;1.52;;;;;;;;;;5051083;28;20017;-38
2022/05/18 00:43:30;;;;;;;1.58;1.40;;;;;;;;;;5051290;28;20037;-38
2022/05/18 00:45:56;;;;;;;2.30;1.98;;;;;;;;;;5051440;28;20044;-38
2022/05/18 00:48:22;;;;;;;2.22;1.80;;;;;;;;;;5051323;28;20029;-38
2022/05/18 00:50:47;;;;;;;3.90;1.80;;;;;;;;;;5050888;28;20047;-38
2022/05/18 00:53:12;;;;;;;2.03;1.20;;;;;;;;;;5051195;28;20041;-38
2022/05/18 00:55:39;;;;;;;2.85;1.30;;;;;;;;;;5051049;28;20394;-38
2022/05/18 00:58:04;;;;;;;2.05;1.45;;;;;;;;;;5050795;28;20060;-37
2022/05/18 01:00:30;;;;;;;3.70;1.48;;;;;;;;;;5051244;28;20059;-38
2022/05/18 01:02:57;;;;;;;2.92;2.17;;;;;;;;;;5050958;28;20120;-38
2022/05/18 01:05:25;;;;;;;4.45;1.70;;;;;;;;;;5051095;28;20024;-38
2022/05/18 01:07:51;;;;;;;5.10;1.38;;;;;;;;;;5050826;28;20040;-38
2022/05/18 01:10:17;;;;;;;2.40;1.33;;;;;;;;;;5050857;28;20046;-38
2022/05/18 01:12:44;;;;;;;2.33;1.73;;;;;;;;;;5050529;28;20037;-37
2022/05/18 01:15:11;;;;;;;2.97;1.48;;;;;;;;;;5051034;28;20191;-39
2022/05/18 01:17:41;;;;;;;1.38;1.00;;;;;;;;;;5050855;28;20025;-38
2022/05/18 01:20:10;;;;;;;2.67;1.58;;;;;;;;;;5051043;28;20036;-38
2022/05/18 01:22:45;;;;;;;3.78;1.27;;;;;;;;;;5054324;28;20376;-38
2022/05/18 01:25:19;;;;;;;2.90;2.03;;;;;;;;;;5054194;28;20044;-38
2022/05/18 01:27:45;;;;;;;4.57;1.23;;;;;;;;;;5054622;28;20036;-38
2022/05/18 01:30:11;;;;;;;2.45;1.60;;;;;;;;;;5054498;28;20031;-38
2022/05/18 01:32:41;;;;;;;5.70;1.63;;;;;;;;;;5053991;28;20044;-39
2022/05/18 01:35:08;;;;;;;1.65;1.23;;;;;;;;;;5054116;28;20043;-38
2022/05/18 01:37:33;;;;;;;1.90;1.20;;;;;;;;;;5054105;28;20131;-38
2022/05/18 01:39:59;;;;;;;1.42;1.33;;;;;;;;;;5054010;28;20112;-37
2022/05/18 01:42:44;;;;;;;4.07;1.85;;;;;;;;;;5053947;28;20116;-38
2022/05/18 01:45:10;;;;;;;2.22;1.92;;;;;;;;;;5054162;28;20040;-38
2022/05/18 01:47:36;;;;;;;5.63;1.38;;;;;;;;;;5054137;28;20013;-38
2022/05/18 01:50:04;;;;;;;1.90;1.45;;;;;;;;;;5053935;28;20068;-38
2022/05/18 01:52:29;;;;;;;2.65;1.00;;;;;;;;;;5052744;28;20553;-39
2022/05/18 01:54:54;;;;;;;2.75;1.55;;;;;;;;;;5053712;28;20104;-38
2022/05/18 01:57:20;;;;;;;1.63;1.50;;;;;;;;;;5053990;28;20485;-38
2022/05/18 01:59:45;;;;;;;3.30;1.75;;;;;;;;;;5052770;28;20094;-38
2022/05/18 02:02:10;;;;;;;2.15;1.13;;;;;;;;;;5053461;28;20489;-39
2022/05/18 02:04:36;;;;;;;0.90;0.88;;;;;;;;;;5053650;28;20071;-38
2022/05/18 02:07:02;;;;;;;3.95;1.40;;;;;;;;;;5053553;28;20029;-38
2022/05/18 02:09:28;;;;;;;2.30;1.70;;;;;;;;;;5053385;28;20474;-37
2022/05/18 02:11:53;;;;;;;8.52;2.00;;;;;;;;;;5052298;28;20035;-38
2022/05/18 02:14:19;;;;;;;4.95;1.52;;;;;;;;;;5053133;28;20052;-38
2022/05/18 02:16:45;;;;;;;5.20;1.90;;;;;;;;;;5053365;28;20025;-38
2022/05/18 02:19:10;;;;;;;2.30;1.08;;;;;;;;;;5053230;28;20116;-38
2022/05/18 02:21:35;;;;;;;3.53;1.27;;;;;;;;;;5053246;28;20017;-39
2022/05/18 02:24:01;;;;;;;2.55;1.45;;;;;;;;;;5053270;28;20028;-39
2022/05/18 02:26:26;;;;;;;3.00;1.17;;;;;;;;;;5053123;28;20036;-38
2022/05/18 02:28:52;;;;;;;3.55;1.63;;;;;;;;;;5053246;28;20180;-37
2022/05/18 02:31:17;;;;;;;2.65;1.30;;;;;;;;;;5052908;28;20099;-38
2022/05/18 02:33:42;;;;;;;5.13;1.48;;;;;;;;;;5051782;28;20407;-38
2022/05/18 02:36:08;;;;;;;2.60;1.40;;;;;;;;;;5053234;28;20451;-42
2022/05/18 02:38:35;;;;;;;2.67;1.50;;;;;;;;;;5053028;28;20567;-38
2022/05/18 02:41:00;;;;;;;3.15;1.25;;;;;;;;;;5052931;28;20040;-38
2022/05/18 02:43:26;;;;;;;4.93;2.20;;;;;;;;;;5053082;28;20642;-38
2022/05/18 02:46:04;;;;;;;4.35;1.77;;;;;;;;;;5052795;28;20493;-37
2022/05/18 02:48:29;;;;;;;2.70;1.20;;;;;;;;;;5053015;28;20033;-38
2022/05/18 02:50:55;;;;;;;1.73;1.20;;;;;;;;;;5052843;28;20684;-38
2022/05/18 02:53:21;;;;;;;1.50;1.20;;;;;;;;;;5052590;28;20763;-37
2022/05/18 02:56:05;;;;;;;3.58;1.58;;;;;;;;;;5052700;28;20021;-37
2022/05/18 02:58:42;;;;;;;6.15;1.77;;;;;;;;;;5052816;28;20382;-38
2022/05/18 03:01:13;;;;;;;3.05;1.45;;;;;;;;;;5052534;28;20028;-38
2022/05/18 03:03:38;;;;;;;2.55;1.45;;;;;;;;;;5052542;28;20501;-40
2022/05/18 03:06:08;;;;;;;2.78;1.52;;;;;;;;;;5052423;28;20033;-38
2022/05/18 03:08:35;;;;;;;2.55;1.65;;;;;;;;;;5052660;28;20024;-38
2022/05/18 03:11:01;;;;;;;2.58;1.38;;;;;;;;;;5052286;28;20054;-37
2022/05/18 03:13:26;;;;;;;4.05;1.35;;;;;;;;;;5052098;28;20139;-38
2022/05/18 03:15:51;;;;;;;2.22;1.65;;;;;;;;;;5051000;28;20505;-38
2022/05/18 03:18:17;;;;;;;1.48;1.38;;;;;;;;;;5052107;28;20226;-38
2022/05/18 03:23:36;;;;;;;2.85;1.63;;;;;;;;;;5052307;28;20037;-37
2022/05/18 03:26:06;;;;;;;1.80;1.35;;;;;;;;;;5052153;28;20029;-37
2022/05/18 03:28:32;;;;;;;2.83;1.40;;;;;;;;;;5051924;28;20166;-38
2022/05/18 03:30:57;;;;;;;2.58;1.73;;;;;;;;;;5052071;28;20108;-37
2022/05/18 03:33:23;;;;;;;3.70;1.95;;;;;;;;;;5051721;28;20021;-38
2022/05/18 03:35:48;;;;;;;6.10;1.95;;;;;;;;;;5051977;28;20033;-37
2022/05/18 03:38:14;;;;;;;2.95;1.55;;;;;;;;;;5051838;28;20028;-38
2022/05/18 03:40:40;;;;;;;3.67;1.55;;;;;;;;;;5051771;28;20151;-38
2022/05/18 03:43:06;;;;;;;3.33;1.50;;;;;;;;;;5051697;28;20040;-37
2022/05/18 03:45:33;;;;;;;2.22;1.23;;;;;;;;;;5051642;28;20506;-38
2022/05/18 03:47:58;;;;;;;1.20;1.10;;;;;;;;;;5051697;28;20068;-37
2022/05/18 03:50:24;;;;;;;2.20;1.80;;;;;;;;;;5051575;28;20064;-40
2022/05/18 03:52:49;;;;;;;4.00;1.48;;;;;;;;;;5051463;28;20025;-38
2022/05/18 03:55:15;;;;;;;14.48;1.85;;;;;;;;;;5051568;28;20086;-38
2022/05/18 03:57:40;;;;;;;1.90;1.27;;;;;;;;;;5051895;28;20374;-38
2022/05/18 04:00:06;;;;;;;8.20;1.88;;;;;;;;;;5051839;28;20028;-37
2022/05/18 04:02:33;;;;;;;4.15;1.75;;;;;;;;;;5051312;28;20044;-39
2022/05/18 04:04:59;;;;;;;2.25;1.55;;;;;;;;;;5051741;28;20098;-38
2022/05/18 04:07:24;;;;;;;3.17;1.70;;;;;;;;;;5051701;28;20057;-38
2022/05/18 04:09:49;;;;;;;4.05;1.65;;;;;;;;;;5051452;28;20562;-38
2022/05/18 04:12:15;;;;;;;2.92;1.92;;;;;;;;;;5051036;28;20016;-38
2022/05/18 04:14:40;;;;;;;2.80;1.88;;;;;;;;;;5051354;28;20045;-38
2022/05/18 04:17:06;;;;;;;2.45;1.25;;;;;;;;;;5051334;28;20116;-38
2022/05/18 04:19:31;;;;;;;2.58;1.15;;;;;;;;;;5051569;28;20457;-39
2022/05/18 04:21:56;;;;;;;2.60;1.38;;;;;;;;;;5051267;28;20104;-38
2022/05/18 04:24:22;;;;;;;2.85;1.58;;;;;;;;;;5051177;28;20056;-37
2022/05/18 04:26:47;;;;;;;2.65;1.33;;;;;;;;;;5051269;28;20078;-37
2022/05/18 04:29:13;;;;;;;1.35;1.25;;;;;;;;;;5051201;28;20036;-38
2022/05/18 04:31:38;;;;;;;2.22;1.90;;;;;;;;;;5050210;28;20017;-38
2022/05/18 04:34:04;;;;;;;2.45;2.17;;;;;;;;;;5051174;28;20170;-37
2022/05/18 04:36:30;;;;;;;3.17;1.35;;;;;;;;;;5051413;28;20072;-37
2022/05/18 04:38:55;;;;;;;2.88;1.40;;;;;;;;;;5051144;28;20044;-39
2022/05/18 04:41:21;;;;;;;4.28;1.70;;;;;;;;;;5051080;28;20016;-37
2022/05/18 04:43:47;;;;;;;3.08;1.67;;;;;;;;;;5051349;28;20113;-37
2022/05/18 04:46:13;;;;;;;3.60;1.55;;;;;;;;;;5051275;28;20025;-38
2022/05/18 04:48:40;;;;;;;1.95;1.17;;;;;;;;;;5051114;28;20037;-38
2022/05/18 04:51:05;;;;;;;1.35;1.17;;;;;;;;;;5051362;28;20021;-37
2022/05/18 04:53:32;;;;;;;5.72;1.42;;;;;;;;;;5049568;28;20175;-37
2022/05/18 04:55:57;;;;;;;3.47;1.50;;;;;;;;;;5052869;28;20078;-38
2022/05/18 04:58:23;;;;;;;5.18;1.75;;;;;;;;;;5055105;28;20037;-38
2022/05/18 05:01:01;;;;;;;3.80;1.35;;;;;;;;;;5054790;28;20025;-37
2022/05/18 05:03:27;;;;;;;4.15;1.52;;;;;;;;;;5055019;28;20040;-37
2022/05/18 05:05:52;;;;;;;8.90;1.58;;;;;;;;;;5054704;28;20017;-38
2022/05/18 05:08:18;;;;;;;4.18;1.73;;;;;;;;;;5054880;28;20032;-38
2022/05/18 05:10:43;;;;;;;4.78;1.20;;;;;;;;;;5054659;28;20017;-38
2022/05/18 05:13:09;;;;;;;3.03;1.70;;;;;;;;;;5054183;28;20171;-43
2022/05/18 05:15:35;;;;;;;3.40;1.25;;;;;;;;;;5054648;28;20029;-37
2022/05/18 05:18:01;;;;;;;2.55;1.33;;;;;;;;;;5054817;28;20083;-38
2022/05/18 05:20:26;;;;;;;5.63;1.67;;;;;;;;;;5054552;28;20028;-38
2022/05/18 05:22:52;;;;;;;2.03;1.50;;;;;;;;;;5054473;28;20364;-38
2022/05/18 05:25:17;;;;;;;6.32;1.80;;;;;;;;;;5054283;28;20601;-38
2022/05/18 05:27:43;;;;;;;2.55;1.75;;;;;;;;;;5054097;28;20033;-38
2022/05/18 05:30:09;;;;;;;1.67;1.38;;;;;;;;;;5053025;28;20035;-38
2022/05/18 05:32:35;;;;;;;2.03;1.50;;;;;;;;;;5054225;28;20074;-37
2022/05/18 05:35:00;;;;;;;3.15;1.52;;;;;;;;;;5052738;28;20040;-38
2022/05/18 05:37:26;;;;;;;1.95;1.38;;;;;;;;;;5054036;28;20048;-38
2022/05/18 05:39:51;;;;;;;2.17;1.80;;;;;;;;;;5054085;28;20024;-39
2022/05/18 05:42:16;;;;;;;3.00;1.90;;;;;;;;;;5053903;28;20033;-38
2022/05/18 05:44:42;;;;;;;3.05;1.65;;;;;;;;;;5054002;28;20079;-37
2022/05/18 05:47:09;;;;;;;2.90;1.85;;;;;;;;;;5053986;28;20025;-38
2022/05/18 05:49:35;;;;;;;3.67;1.90;;;;;;;;;;5054181;28;20382;-38
2022/05/18 05:52:00;;;;;;;3.17;1.70;;;;;;;;;;5053830;28;20029;-38
2022/05/18 05:54:26;;;;;;;3.47;1.45;;;;;;;;;;5053690;28;20029;-37
2022/05/18 05:56:52;;;;;;;3.78;1.70;;;;;;;;;;5053943;28;20033;-38
2022/05/18 05:59:19;;;;;;;2.72;1.70;;;;;;;;;;5053735;28;20013;-38
2022/05/18 06:01:45;;;;;;;1.80;1.25;;;;;;;;;;5052646;28;20033;-37
2022/05/18 06:04:11;;;;;;;3.28;1.67;;;;;;;;;;5053780;28;20031;-38
2022/05/18 06:06:37;;;;;;;2.20;1.60;;;;;;;;;;5053251;28;20119;-38
2022/05/18 06:09:03;;;;;;;5.70;1.40;;;;;;;;;;5053821;28;20024;-38
2022/05/18 06:11:29;;;;;;;2.72;1.65;;;;;;;;;;5053431;28;20029;-38
2022/05/18 06:13:54;;;;;;;2.75;1.60;;;;;;;;;;5053250;28;20548;-39
2022/05/18 06:16:20;;;;;;;1.55;1.30;;;;;;;;;;5052051;28;20025;-38
2022/05/18 06:18:45;;;;;;;2.13;1.48;;;;;;;;;;5053618;28;20111;-37
2022/05/18 06:21:11;;;;;;;3.08;1.52;;;;;;;;;;5053227;28;20108;-37
2022/05/18 06:23:37;;;;;;;2.55;1.65;;;;;;;;;;5053353;28;20131;-38
2022/05/18 06:26:03;;;;;;;1.85;1.40;;;;;;;;;;5053211;28;20056;-38
2022/05/18 06:28:29;;;;;;;2.30;1.95;;;;;;;;;;5053131;28;20103;-38
2022/05/18 06:30:54;;;;;;;4.85;1.92;;;;;;;;;;5053194;28;20037;-38
2022/05/18 06:33:20;;;;;;;2.08;1.35;;;;;;;;;;5052915;28;20032;-38
2022/05/18 06:35:47;;;;;;;4.18;1.98;;;;;;;;;;5053134;28;20170;-39
2022/05/18 06:38:13;;;;;;;4.10;1.63;;;;;;;;;;5052974;28;20041;-38
2022/05/18 06:43:23;;;;;;;4.95;2.40;;;;;;;;;;5053196;28;20033;-38
2022/05/18 06:45:48;;;;;;;4.25;1.77;;;;;;;;;;5052848;28;20036;-38
2022/05/18 06:48:14;;;;;;;1.60;1.40;;;;;;;;;;5052799;28;20112;-38
2022/05/18 06:50:39;;;;;;;3.97;1.42;;;;;;;;;;5052756;28;20374;-38
2022/05/18 06:53:05;;;;;;;1.50;1.40;;;;;;;;;;5052662;28;20037;-38
2022/05/18 06:55:30;;;;;;;8.02;1.90;;;;;;;;;;5052665;28;20009;-38
2022/05/18 06:57:56;;;;;;;6.38;2.33;;;;;;;;;;5052927;28;20032;-38
2022/05/18 07:00:21;;;;;;;2.25;1.90;;;;;;;;;;5052442;28;20059;-38
2022/05/18 07:02:46;;;;;;;1.40;1.30;;;;;;;;;;5052573;28;20036;-38
2022/05/18 07:05:12;;;;;;;2.65;1.58;;;;;;;;;;5052465;28;20009;-38
2022/05/18 07:07:37;;;;;;;2.85;1.88;;;;;;;;;;5052471;28;20399;-38
2022/05/18 07:10:03;;;;;;;2.70;1.67;;;;;;;;;;5052302;28;20455;-38
2022/05/18 07:12:29;;;;;;;3.20;1.55;;;;;;;;;;5052248;28;20049;-38
2022/05/18 07:14:54;;;;;;;4.00;2.15;;;;;;;;;;5052232;28;20052;-38
2022/05/18 07:17:20;;;;;;;4.18;1.67;;;;;;;;;;5051974;28;20035;-38
2022/05/18 07:19:45;;;;;;;1.70;1.55;;;;;;;;;;5051886;28;20108;-38
2022/05/18 07:22:12;;;;;;;3.20;1.73;;;;;;;;;;5051972;28;20052;-38
2022/05/18 07:24:37;;;;;;;2.53;1.67;;;;;;;;;;5052151;28;20028;-38
2022/05/18 07:27:03;;;;;;;2.45;1.52;;;;;;;;;;5052421;28;20033;-38
2022/05/18 07:29:29;;;;;;;2.10;1.90;;;;;;;;;;5052089;28;20049;-38
2022/05/18 07:32:12;;;;;;;3.60;1.55;;;;;;;;;;5051987;28;20068;-38
2022/05/18 07:34:37;;;;;;;2.08;1.42;;;;;;;;;;5051946;28;20568;-38
2022/05/18 07:37:03;;;;;;;3.72;1.80;;;;;;;;;;5051829;28;20021;-38
2022/05/18 07:39:29;;;;;;;3.25;2.55;;;;;;;;;;5051692;28;20025;-38
2022/05/18 07:41:58;;;;;;;3.22;1.60;;;;;;;;;;5051867;28;20526;-39
2022/05/18 07:44:24;;;;;;;2.65;1.55;;;;;;;;;;5051689;28;20123;-38
2022/05/18 07:46:49;;;;;;;3.90;1.42;;;;;;;;;;5051725;28;20112;-38
2022/05/18 07:49:15;;;;;;;1.95;1.42;;;;;;;;;;5051577;28;20041;-38
2022/05/18 07:51:41;;;;;;;3.42;2.05;;;;;;;;;;5051509;28;20090;-38
2022/05/18 07:54:06;;;;;;;2.95;1.85;;;;;;;;;;5051637;28;20041;-38
2022/05/18 07:56:34;;;;;;;5.35;1.50;;;;;;;;;;5051820;28;20017;-39
2022/05/18 07:59:00;;;;;;;3.17;1.60;;;;;;;;;;5051555;28;20025;-38
2022/05/18 08:01:25;;;;;;;2.85;1.50;;;;;;;;;;5051723;28;20043;-38
2022/05/18 08:03:51;;;;;;;3.95;1.88;;;;;;;;;;5051444;28;20564;-38
2022/05/18 08:06:16;;;;;;;3.80;2.22;;;;;;;;;;5051381;28;20079;-38
2022/05/18 08:08:42;;;;;;;2.05;1.52;;;;;;;;;;5051471;28;20035;-38
2022/05/18 08:16:36;;;;;;;2.75;1.10;;;;;;;;;;5051383;28;20116;-38
2022/05/18 08:19:01;;;;;;;6.43;1.65;;;;;;;;;;5051595;28;20446;-38
2022/05/18 08:21:27;;;;;;;4.05;1.83;;;;;;;;;;5051185;28;20560;-38
2022/05/18 08:23:52;;;;;;;1.95;1.60;;;;;;;;;;5051373;28;20044;-38
2022/05/18 08:26:18;;;;;;;9.40;2.28;;;;;;;;;;5051347;28;20104;-38
2022/05/18 08:28:43;;;;;;;2.13;1.85;;;;;;;;;;5051577;28;20456;-38
2022/05/18 08:31:08;;;;;;;6.35;1.85;;;;;;;;;;5055163;28;20108;-38
2022/05/18 08:33:34;;;;;;;1.50;1.38;;;;;;;;;;5055148;28;20052;-38
2022/05/18 08:36:01;;;;;;;1.52;1.42;;;;;;;;;;5055634;28;20033;-38
2022/05/18 08:38:27;;;;;;;1.90;1.58;;;;;;;;;;5055422;28;20423;-38
2022/05/18 08:41:01;;;;;;;1.67;1.45;;;;;;;;;;5055427;28;20079;-38
2022/05/18 08:43:29;;;;;;;1.90;1.65;;;;;;;;;;5055392;28;20068;-38
2022/05/18 08:45:59;;;;;;;3.50;2.70;;;;;;;;;;5055369;28;20060;-38
2022/05/18 08:49:04;;;;;;;1.80;1.38;;;;;;;;;;5053745;28;20112;-38
2022/05/18 08:51:29;;;;;;;3.40;1.80;;;;;;;;;;5052456;28;20037;-38
2022/05/18 08:53:55;;;;;;;2.20;1.30;;;;;;;;;;5052290;28;20078;-38
2022/05/18 08:56:25;;;;;;;5.18;1.58;;;;;;;;;;5053667;28;20033;-38
2022/05/18 08:58:52;;;;;;;2.67;1.33;;;;;;;;;;5055162;28;20032;-38
2022/05/18 09:01:21;;;;;;;2.28;1.63;;;;;;;;;;5053403;28;20386;-38
2022/05/18 09:04:00;;;;;;;1.73;1.63;;;;;;;;;;5054838;28;20059;-40
2022/05/18 09:06:35;;;;;;;2.63;2.13;;;;;;;;;;5054698;28;20040;-38
2022/05/18 09:11:54;;;;;;;14.88;1.88;;;;;;;;;;5054749;28;20048;-38
2022/05/18 09:14:20;;;;;;;2.13;1.90;;;;;;;;;;5054271;28;20077;-38
2022/05/18 09:16:58;;;;;;;3.33;1.58;;;;;;;;;;5054493;28;20032;-38
2022/05/18 09:19:46;;;;;;;2.67;1.52;;;;;;;;;;5054706;28;20029;-38
2022/05/18 09:22:24;;;;;;;4.18;1.25;;;;;;;;;;5053823;28;20175;-38
2022/05/18 09:25:08;;;;;;;4.78;1.63;;;;;;;;;;5054729;28;20025;-38
2022/05/18 09:27:34;;;;;;;3.38;2.08;;;;;;;;;;5054229;28;20100;-39
2022/05/18 09:30:07;;;;;;;2.13;1.80;;;;;;;;;;5054207;28;20164;-38
2022/05/18 09:32:32;;;;;;;2.70;1.73;;;;;;;;;;5054165;28;20063;-38
2022/05/18 09:35:04;;;;;;;2.30;1.52;;;;;;;;;;5054214;28;20056;-38
2022/05/18 09:37:38;;;;;;;2.90;1.80;;;;;;;;;;5054067;28;20036;-38
2022/05/18 09:40:19;;;;;;;3.45;1.50;;;;;;;;;;5054132;28;20043;-38
2022/05/18 09:42:47;;;;;;;2.05;1.60;;;;;;;;;;5053627;28;20025;-38
2022/05/18 09:45:18;;;;;;;1.60;1.50;;;;;;;;;;5053901;28;20495;-39
2022/05/18 09:47:47;;;;;;;4.38;1.80;;;;;;;;;;5053053;28;20037;-38
2022/05/18 09:50:13;;;;;;;2.45;1.48;;;;;;;;;;5053740;28;20043;-38
2022/05/18 09:52:40;;;;;;;19.60;2.17;;;;;;;;;;5053771;28;20112;-38
2022/05/18 09:55:08;;;;;;;3.90;1.17;;;;;;;;;;5053854;28;20360;-38
2022/05/18 09:57:52;;;;;;;1.85;1.45;;;;;;;;;;5053719;28;20130;-38
2022/05/18 10:00:23;;;;;;;4.88;1.80;;;;;;;;;;5053673;28;20036;-38
2022/05/18 10:08:24;;;;;;;2.25;1.83;;;;;;;;;;5053837;28;20032;-38
2022/05/18 10:10:58;;;;;;;3.28;1.42;;;;;;;;;;5053493;28;20490;-38
2022/05/18 10:13:25;;;;;;;1.55;1.35;;;;;;;;;;5053107;28;20503;-38
2022/05/18 10:15:59;;;;;;;5.10;2.03;;;;;;;;;;5053530;28;20094;-39
2022/05/18 10:18:28;;;;;;;1.40;1.30;;;;;;;;;;5053341;28;20476;-39
2022/05/18 10:21:01;;;;;;;1.65;1.55;;;;;;;;;;5053596;28;20027;-38
2022/05/18 10:23:32;;;;;;;7.35;1.52;;;;;;;;;;5053308;28;20052;-39
2022/05/18 10:25:57;;;;;;;3.40;2.00;;;;;;;;;;5052035;28;20115;-38
2022/05/18 10:28:27;;;;;;;3.08;1.73;;;;;;;;;;5053083;28;20092;-38
2022/05/18 10:30:57;;;;;;;2.10;1.80;;;;;;;;;;5053429;28;20028;-38
2022/05/18 10:33:23;;;;;;;3.10;1.38;;;;;;;;;;5053224;28;20064;-37
2022/05/18 10:35:51;;;;;;;4.03;1.98;;;;;;;;;;5053065;28;20032;-38
2022/05/18 10:38:22;;;;;;;5.53;1.73;;;;;;;;;;5053293;28;20112;-38
2022/05/18 10:40:48;;;;;;;3.38;1.63;;;;;;;;;;5052941;28;20033;-38
2022/05/18 10:43:16;;;;;;;3.53;1.92;;;;;;;;;;5053287;28;20524;-37
2022/05/18 10:45:43;;;;;;;1.70;1.52;;;;;;;;;;5052952;28;20052;-38
2022/05/18 10:48:18;;;;;;;2.83;1.48;;;;;;;;;;5052783;28;20029;-38
2022/05/18 10:50:45;;;;;;;5.47;1.88;;;;;;;;;;5052691;28;20049;-38
2022/05/18 10:53:13;;;;;;;2.85;1.98;;;;;;;;;;5051683;28;20021;-37
2022/05/18 10:55:57;;;;;;;4.28;1.38;;;;;;;;;;5051395;28;20029;-38
2022/05/18 10:58:24;;;;;;;1.98;1.65;;;;;;;;;;5052700;28;20063;-38
2022/05/18 11:00:55;;;;;;;4.68;1.83;;;;;;;;;;5052779;28;20013;-38
2022/05/18 11:03:30;;;;;;;2.70;1.95;;;;;;;;;;5052359;28;20453;-41
2022/05/18 11:06:06;;;;;;;5.88;1.40;;;;;;;;;;5052627;28;20374;-38
2022/05/18 11:08:31;;;;;;;3.28;1.65;;;;;;;;;;5052493;28;20037;-39
2022/05/18 11:10:59;;;;;;;3.38;2.17;;;;;;;;;;5052358;28;20035;-38
2022/05/18 11:13:31;;;;;;;5.47;1.70;;;;;;;;;;5052184;28;20055;-39
2022/05/18 11:16:15;;;;;;;2.50;2.00;;;;;;;;;;5051072;28;20460;-38
2022/05/18 11:18:47;;;;;;;1.92;1.60;;;;;;;;;;5052278;28;20033;-38
2022/05/18 11:21:25;;;;;;;4.75;1.73;;;;;;;;;;5052095;28;20660;-38
2022/05/18 11:24:06;;;;;;;1.70;1.58;;;;;;;;;;5052220;28;20494;-39
2022/05/18 11:26:32;;;;;;;3.10;1.60;;;;;;;;;;5052309;28;20029;-39
2022/05/18 11:29:17;;;;;;;2.70;1.67;;;;;;;;;;5052384;28;20408;-38
2022/05/18 11:31:52;;;;;;;3.45;1.58;;;;;;;;;;5051942;28;20545;-38
2022/05/18 11:34:33;;;;;;;9.25;1.90;;;;;;;;;;5050559;28;20041;-38
2022/05/18 11:37:33;;;;;;;3.15;1.63;;;;;;;;;;5051979;28;20112;-38
2022/05/18 11:40:04;;;;;;;2.25;1.83;;;;;;;;;;5049438;28;20040;-38
2022/05/18 11:42:32;;;;;;;1.85;1.45;;;;;;;;;;5051222;28;20129;-38
2022/05/18 11:45:06;;;;;;;2.90;1.75;;;;;;;;;;5051804;28;20071;-38
2022/05/18 11:47:50;;;;;;;2.75;1.58;;;;;;;;;;5051671;28;20393;-38
2022/05/18 11:50:15;;;;;;;2.95;2.47;;;;;;;;;;5051601;28;20044;-38
2022/05/18 11:52:47;;;;;;;1.73;1.48;;;;;;;;;;5051903;28;20025;-38
2022/05/18 11:55:31;;;;;;;2.92;2.10;;;;;;;;;;5051647;28;20037;-39
2022/05/18 11:58:15;;;;;;;5.35;2.10;;;;;;;;;;5051912;28;20033;-38
2022/05/18 12:00:56;;;;;;;3.28;1.67;;;;;;;;;;5051465;28;20033;-38
2022/05/18 12:03:34;;;;;;;3.35;2.00;;;;;;;;;;5051469;28;20033;-38
2022/05/18 12:06:20;;;;;;;2.55;1.45;;;;;;;;;;5051398;28;20052;-38
2022/05/18 12:08:55;;;;;;;2.72;2.00;;;;;;;;;;5051799;28;20129;-38
2022/05/18 12:11:29;;;;;;;2.65;1.50;;;;;;;;;;5051398;28;20021;-38
2022/05/18 12:14:12;;;;;;;2.25;1.45;;;;;;;;;;5051190;28;20475;-38
2022/05/18 12:16:48;;;;;;;2.40;1.70;;;;;;;;;;5051352;28;20052;-38
2022/05/18 12:19:22;;;;;;;2.95;1.65;;;;;;;;;;5051674;28;20057;-43
2022/05/18 12:21:52;;;;;;;2.00;1.83;;;;;;;;;;5051461;28;20033;-38
2022/05/18 12:24:19;;;;;;;2.15;1.65;;;;;;;;;;5051601;28;20025;-38
2022/05/18 12:26:45;;;;;;;6.70;1.83;;;;;;;;;;5051362;28;20016;-38
2022/05/18 12:29:12;;;;;;;3.08;1.70;;;;;;;;;;5049981;28;20536;-38
2022/05/18 12:31:38;;;;;;;4.57;1.42;;;;;;;;;;5051219;28;20100;-38
2022/05/18 12:34:15;;;;;;;3.05;1.67;;;;;;;;;;5051442;28;20056;-38
2022/05/18 12:36:45;;;;;;;2.47;1.60;;;;;;;;;;5051505;28;20025;-39
2022/05/18 12:39:12;;;;;;;6.05;1.30;;;;;;;;;;5051437;28;20045;-38
2022/05/18 12:41:44;;;;;;;4.45;1.90;;;;;;;;;;5051215;28;20028;-38
2022/05/18 12:44:11;;;;;;;3.95;2.03;;;;;;;;;;5051163;28;20383;-37
2022/05/18 12:46:37;;;;;;;2.08;1.88;;;;;;;;;;5051296;28;20025;-39
2022/05/18 12:49:10;;;;;;;2.28;2.10;;;;;;;;;;5049832;28;20055;-38
2022/05/18 12:51:35;;;;;;;;;;;;;;;;;;5051363;28;20425;-37
2022/05/18 12:54:09;;;;;;;1.60;1.48;;;;;;;;;;5050944;28;20012;-38
2022/05/18 12:56:35;;;;;;;3.45;2.10;;;;;;;;;;5050892;28;20082;-38
2022/05/18 12:59:05;;;;;;;3.80;1.63;;;;;;;;;;5051054;28;20025;-41
2022/05/18 13:01:35;;;;;;;3.72;1.63;;;;;;;;;;5049588;28;20119;-37
2022/05/18 13:04:01;;;;;;;2.33;1.60;;;;;;;;;;5050911;28;20033;-38
2022/05/18 13:06:54;;;;;;;4.80;1.65;;;;;;;;;;5051203;28;20032;-37
2022/05/18 13:09:35;;;;;;;2.63;1.52;;;;;;;;;;5050447;28;20514;-38
2022/05/18 13:12:19;;;;;;;4.80;1.98;;;;;;;;;;5050830;28;20045;-38
2022/05/18 13:14:59;;;;;;;3.13;1.67;;;;;;;;;;5050774;28;20055;-38
2022/05/18 13:17:41;;;;;;;7.68;2.13;;;;;;;;;;5053060;28;20486;-38
2022/05/18 13:20:29;;;;;;;1.73;1.40;;;;;;;;;;5054472;28;20044;-38
2022/05/18 13:23:03;;;;;;;2.45;1.60;;;;;;;;;;5054531;28;20562;-41
2022/05/18 13:25:31;;;;;;;9.63;2.08;;;;;;;;;;5054288;28;20032;-38
2022/05/18 13:27:57;;;;;;;3.85;1.80;;;;;;;;;;5054706;28;20027;-38
2022/05/18 13:30:42;;;;;;;3.42;1.50;;;;;;;;;;5054458;28;20033;-38
2022/05/18 13:33:09;;;;;;;4.10;1.52;;;;;;;;;;5054192;28;20040;-38
2022/05/18 13:35:36;;;;;;;2.53;1.58;;;;;;;;;;5054178;28;20057;-38
2022/05/18 13:38:09;;;;;;;1.58;1.35;;;;;;;;;;5054238;28;20025;-38
2022/05/18 13:40:34;;;;;;;2.97;1.70;;;;;;;;;;5054051;28;20063;-38
2022/05/18 13:43:01;;;;;;;3.42;1.60;;;;;;;;;;5054402;28;20060;-38
2022/05/18 13:45:28;;;;;;;2.03;1.48;;;;;;;;;;5054002;28;20060;-39
2022/05/18 13:47:55;;;;;;;3.60;1.50;;;;;;;;;;5054002;28;20056;-38
2022/05/18 13:50:23;;;;;;;3.28;1.70;;;;;;;;;;5053781;28;20458;-38
2022/05/18 13:52:49;;;;;;;5.82;2.10;;;;;;;;;;5054143;28;20071;-38
2022/05/18 13:55:18;;;;;;;2.33;2.10;;;;;;;;;;5054059;28;20040;-38
2022/05/18 13:57:45;;;;;;;1.80;1.27;;;;;;;;;;5053876;28;20017;-38
2022/05/18 14:00:31;;;;;;;3.72;1.80;;;;;;;;;;5053745;28;20068;-38
2022/05/18 14:02:58;;;;;;;4.10;1.30;;;;;;;;;;5053555;28;20036;-39
2022/05/18 14:05:27;;;;;;;7.07;1.73;;;;;;;;;;5052439;28;20025;-39
2022/05/18 14:07:53;;;;;;;4.18;1.77;;;;;;;;;;5053584;28;20029;-38
2022/05/18 14:10:21;;;;;;;1.88;1.60;;;;;;;;;;5052306;28;20123;-38
2022/05/18 14:12:46;;;;;;;2.90;1.80;;;;;;;;;;5053652;28;20039;-38
2022/05/18 14:15:13;;;;;;;4.82;1.73;;;;;;;;;;5053426;28;20037;-38
2022/05/18 14:17:39;;;;;;;4.00;1.58;;;;;;;;;;5053335;28;20036;-39
2022/05/18 14:20:23;;;;;;;1.63;1.48;;;;;;;;;;5053391;28;20021;-38
2022/05/18 14:22:52;;;;;;;5.10;1.58;;;;;;;;;;5052176;28;20179;-38
2022/05/18 14:25:19;;;;;;;2.03;1.83;;;;;;;;;;5053208;28;20036;-38
2022/05/18 14:27:53;;;;;;;6.45;1.70;;;;;;;;;;5053023;28;20429;-39
2022/05/18 14:30:24;;;;;;;2.55;1.77;;;;;;;;;;5053035;28;20040;-38
2022/05/18 14:32:53;;;;;;;4.38;1.90;;;;;;;;;;5053283;28;20478;-39
2022/05/18 14:35:22;;;;;;;2.83;1.50;;;;;;;;;;5053259;28;20029;-40
2022/05/18 14:37:49;;;;;;;2.40;1.77;;;;;;;;;;5053080;28;20037;-38
2022/05/18 14:40:16;;;;;;;3.33;1.65;;;;;;;;;;5053069;28;20498;-39
2022/05/18 14:42:45;;;;;;;2.22;1.40;;;;;;;;;;5052823;28;20558;-38
2022/05/18 14:45:15;;;;;;;2.53;2.13;;;;;;;;;;5052996;28;20028;-38
2022/05/18 14:47:40;;;;;;;2.03;1.58;;;;;;;;;;5053030;28;20102;-38
2022/05/18 14:50:12;;;;;;;1.85;1.70;;;;;;;;;;5053055;28;20498;-38
2022/05/18 14:52:41;;;;;;;2.05;1.55;;;;;;;;;;5052935;28;20040;-39
2022/05/18 14:55:14;;;;;;;2.40;1.67;;;;;;;;;;5052757;28;20036;-38
2022/05/18 14:57:41;;;;;;;4.20;1.73;;;;;;;;;;5052603;28;20017;-39
2022/05/18 15:00:12;;;;;;;2.03;1.80;;;;;;;;;;5052618;28;20031;-38
2022/05/18 15:02:40;;;;;;;3.85;1.73;;;;;;;;;;5052527;28;20065;-38
2022/05/18 15:05:08;;;;;;;3.65;1.88;;;;;;;;;;5052787;28;20362;-39
2022/05/18 15:07:39;;;;;;;5.18;1.63;;;;;;;;;;5052705;28;20028;-38
2022/05/18 15:10:25;;;;;;;2.05;1.80;;;;;;;;;;5052641;28;20104;-38
2022/05/18 15:13:00;;;;;;;2.30;1.80;;;;;;;;;;5051978;28;20091;-38